createdAt,value
2017-10-03T00:01:00.539Z,33.73
2017-10-03T00:03:27.434Z,27.00
2017-10-03T00:05:54.308Z,32.87
2017-10-03T00:08:21.172Z,28.73
2017-10-03T00:10:47.999Z,36.07
2017-10-03T00:13:14.847Z,22.13
2017-10-03T00:15:41.925Z,19.67
2017-10-03T00:18:08.796Z,21.13
2017-10-03T00:20:35.656Z,26.20
2017-10-03T00:23:02.516Z,31.17
2017-10-03T00:25:29.373Z,31.23
2017-10-03T00:27:56.230Z,19.47
2017-10-03T00:30:23.120Z,30.63
2017-10-03T00:32:49.962Z,37.20
2017-10-03T00:35:16.832Z,29.83
2017-10-03T00:37:43.668Z,26.33
2017-10-03T00:40:10.762Z,26.47
2017-10-03T00:42:37.617Z,26.83
2017-10-03T00:45:04.467Z,30.37
2017-10-03T00:47:31.709Z,35.10
2017-10-03T00:49:58.537Z,41.63
2017-10-03T00:52:25.403Z,20.73
2017-10-03T00:54:52.251Z,25.23
2017-10-03T00:57:19.158Z,24.77
2017-10-03T00:59:46.005Z,22.00
2017-10-03T01:02:12.880Z,19.87
2017-10-03T01:04:39.768Z,29.63
2017-10-03T01:07:06.864Z,27.57
2017-10-03T01:09:33.768Z,36.43
2017-10-03T01:12:00.596Z,24.70
2017-10-03T01:14:27.464Z,25.20
2017-10-03T01:16:54.361Z,30.50
2017-10-03T01:19:21.174Z,21.40
2017-10-03T01:21:48.060Z,29.80
2017-10-03T01:24:14.927Z,35.83
2017-10-03T01:26:42.121Z,31.17
2017-10-03T01:29:09.000Z,27.83
2017-10-03T01:31:35.847Z,23.80
2017-10-03T01:34:02.710Z,23.80
2017-10-03T01:36:29.555Z,25.13
2017-10-03T01:38:56.428Z,36.20
2017-10-03T01:41:23.479Z,24.73
2017-10-03T01:43:50.307Z,23.70
2017-10-03T01:46:17.476Z,25.77
2017-10-03T01:48:44.336Z,23.80
2017-10-03T01:51:11.163Z,27.03
2017-10-03T01:53:37.995Z,30.80
2017-10-03T01:56:04.864Z,28.63
2017-10-03T01:58:31.702Z,23.50
2017-10-03T02:00:58.839Z,28.03
2017-10-03T02:03:25.667Z,22.93
2017-10-03T02:05:52.733Z,20.70
2017-10-03T02:08:19.615Z,30.03
2017-10-03T02:10:46.467Z,28.37
2017-10-03T02:13:13.311Z,18.83
2017-10-03T02:15:40.163Z,24.87
2017-10-03T02:18:07.364Z,32.30
2017-10-03T02:20:34.175Z,28.13
2017-10-03T02:23:01.247Z,16.70
2017-10-03T02:25:28.399Z,17.67
2017-10-03T02:27:55.552Z,19.60
2017-10-03T02:30:22.702Z,31.00
2017-10-03T02:32:49.547Z,24.47
2017-10-03T02:35:16.355Z,19.00
2017-10-03T02:37:43.544Z,24.40
2017-10-03T02:40:10.384Z,15.57
2017-10-03T02:42:37.228Z,21.40
2017-10-03T02:45:04.371Z,26.50
2017-10-03T02:47:31.199Z,23.03
2017-10-03T02:49:58.042Z,24.00
2017-10-03T02:52:25.212Z,22.80
2017-10-03T02:54:52.052Z,15.53
2017-10-03T02:57:18.900Z,21.50
2017-10-03T02:59:45.757Z,22.40
2017-10-03T03:02:12.892Z,23.30
2017-10-03T03:04:40.034Z,22.83
2017-10-03T03:07:06.906Z,29.37
2017-10-03T03:09:33.772Z,26.93
2017-10-03T03:12:00.876Z,20.97
2017-10-03T03:14:28.022Z,19.17
2017-10-03T03:16:55.180Z,32.63
2017-10-03T03:19:22.332Z,19.00
2017-10-03T03:21:49.474Z,20.43
2017-10-03T03:24:16.287Z,31.97
2017-10-03T03:26:43.364Z,26.93
2017-10-03T03:29:10.515Z,32.90
2017-10-03T03:31:37.672Z,18.43
2017-10-03T03:34:04.820Z,15.80
2017-10-03T03:36:31.652Z,27.83
2017-10-03T03:38:58.706Z,22.17
2017-10-03T03:41:25.567Z,29.37
2017-10-03T03:43:52.401Z,22.43
2017-10-03T03:46:19.211Z,20.60
2017-10-03T03:48:46.396Z,21.03
2017-10-03T03:51:13.541Z,20.20
2017-10-03T03:53:40.392Z,24.97
2017-10-03T03:56:07.244Z,19.70
2017-10-03T03:58:34.082Z,17.70
2017-10-03T04:01:00.909Z,42.30
2017-10-03T04:03:27.743Z,34.57
2017-10-03T04:05:54.612Z,21.60
2017-10-03T04:08:21.447Z,27.33
2017-10-03T04:10:48.262Z,25.80
2017-10-03T04:13:15.115Z,19.13
2017-10-03T04:15:42.282Z,32.00
2017-10-03T04:18:09.141Z,24.83
2017-10-03T04:20:35.987Z,26.60
2017-10-03T04:23:02.843Z,28.00
2017-10-03T04:25:29.683Z,24.17
2017-10-03T04:27:56.539Z,19.20
2017-10-03T04:30:23.646Z,26.77
2017-10-03T04:32:50.495Z,17.23
2017-10-03T04:35:17.356Z,25.90
2017-10-03T04:37:44.167Z,29.73
2017-10-03T04:40:11.008Z,21.40
2017-10-03T04:42:38.163Z,21.10
2017-10-03T04:45:05.025Z,31.80
2017-10-03T04:47:31.846Z,28.87
2017-10-03T04:49:58.728Z,18.73
2017-10-03T04:52:25.569Z,19.70
2017-10-03T04:54:52.412Z,24.70
2017-10-03T04:57:19.243Z,34.33
2017-10-03T04:59:46.063Z,23.97
2017-10-03T05:02:13.229Z,25.50
2017-10-03T05:04:40.055Z,30.60
2017-10-03T05:07:07.112Z,22.90
2017-10-03T05:09:34.236Z,18.57
2017-10-03T05:12:01.120Z,19.73
2017-10-03T05:14:27.980Z,20.93
2017-10-03T05:16:54.845Z,21.27
2017-10-03T05:19:21.688Z,21.23
2017-10-03T05:21:48.560Z,28.40
2017-10-03T05:24:15.409Z,27.97
2017-10-03T05:26:42.479Z,21.63
2017-10-03T05:29:09.384Z,27.97
2017-10-03T05:31:36.190Z,30.53
2017-10-03T05:34:03.027Z,25.70
2017-10-03T05:36:29.843Z,28.03
2017-10-03T05:38:56.891Z,33.30
2017-10-03T05:41:23.720Z,28.90
2017-10-03T05:43:50.588Z,29.40
2017-10-03T05:46:17.724Z,26.03
2017-10-03T05:48:44.568Z,21.73
2017-10-03T05:51:11.404Z,28.13
2017-10-03T05:53:38.567Z,34.30
2017-10-03T05:56:05.404Z,21.33
2017-10-03T05:58:32.246Z,32.17
2017-10-03T06:00:59.398Z,28.40
2017-10-03T06:03:26.247Z,20.97
2017-10-03T06:05:53.390Z,26.93
2017-10-03T06:08:20.244Z,27.83
2017-10-03T06:10:47.071Z,18.73
2017-10-03T06:13:13.918Z,24.07
2017-10-03T06:15:40.758Z,28.33
2017-10-03T06:18:07.915Z,18.57
2017-10-03T06:20:34.755Z,24.60
2017-10-03T06:23:01.587Z,17.03
2017-10-03T06:25:28.431Z,16.47
2017-10-03T06:27:55.296Z,25.43
2017-10-03T06:30:22.444Z,23.20
2017-10-03T06:32:49.242Z,22.80
2017-10-03T06:35:16.164Z,29.80
2017-10-03T06:37:42.972Z,42.00
2017-10-03T06:40:10.116Z,29.90
2017-10-03T06:42:37.274Z,31.53
2017-10-03T06:45:04.079Z,20.57
2017-10-03T06:47:30.952Z,22.03
2017-10-03T06:49:58.002Z,28.97
2017-10-03T06:52:24.912Z,19.33
2017-10-03T06:54:51.779Z,13.07
2017-10-03T06:57:18.944Z,17.33
2017-10-03T06:59:46.116Z,30.40
2017-10-03T07:02:13.252Z,21.10
2017-10-03T07:04:40.391Z,25.20
2017-10-03T07:07:07.218Z,25.60
2017-10-03T07:09:34.288Z,19.43
2017-10-03T07:12:01.166Z,28.27
2017-10-03T07:14:27.986Z,20.20
2017-10-03T07:16:55.131Z,16.87
2017-10-03T07:19:22.271Z,22.77
2017-10-03T07:21:49.092Z,17.63
2017-10-03T07:24:15.948Z,21.10
2017-10-03T07:26:43.019Z,17.63
2017-10-03T07:29:09.853Z,14.57
2017-10-03T07:31:36.663Z,24.00
2017-10-03T07:34:03.548Z,23.87
2017-10-03T07:36:30.363Z,24.73
2017-10-03T07:38:57.179Z,20.07
2017-10-03T07:41:24.041Z,24.93
2017-10-03T07:43:50.898Z,23.33
2017-10-03T07:46:17.740Z,20.53
2017-10-03T07:48:44.618Z,15.60
2017-10-03T07:51:11.450Z,22.67
2017-10-03T07:53:38.587Z,15.00
2017-10-03T07:56:05.448Z,16.13
2017-10-03T07:58:32.268Z,19.60
2017-10-03T08:00:59.096Z,21.90
2017-10-03T08:03:26.163Z,14.17
2017-10-03T08:05:53.013Z,14.17
2017-10-03T08:08:20.157Z,14.67
2017-10-03T08:10:47.307Z,18.03
2017-10-03T08:13:14.168Z,13.13
2017-10-03T08:15:41.304Z,13.03
2017-10-03T08:18:08.452Z,28.33
2017-10-03T08:20:35.298Z,20.77
2017-10-03T08:23:02.144Z,28.73
2017-10-03T08:25:28.989Z,12.77
2017-10-03T08:27:55.802Z,16.63
2017-10-03T08:30:22.652Z,19.23
2017-10-03T08:32:49.524Z,16.20
2017-10-03T08:35:16.365Z,21.00
2017-10-03T08:37:43.236Z,16.33
2017-10-03T08:40:10.101Z,19.97
2017-10-03T08:42:36.938Z,20.87
2017-10-03T08:45:03.774Z,14.87
2017-10-03T08:47:30.883Z,12.47
2017-10-03T08:49:58.033Z,17.00
2017-10-03T08:52:24.847Z,12.57
2017-10-03T08:54:51.691Z,17.27
2017-10-03T08:57:18.560Z,15.60
2017-10-03T08:59:45.405Z,15.27
2017-10-03T09:02:12.551Z,15.90
2017-10-03T09:04:39.387Z,12.80
2017-10-03T09:07:06.201Z,10.90
2017-10-03T09:09:33.069Z,19.30
2017-10-03T09:12:00.234Z,17.43
2017-10-03T09:14:27.084Z,10.20
2017-10-03T09:16:53.903Z,15.83
2017-10-03T09:19:20.718Z,14.17
2017-10-03T09:21:47.908Z,14.90
2017-10-03T09:24:15.059Z,19.00
2017-10-03T09:26:41.908Z,11.33
2017-10-03T09:29:09.060Z,18.73
2017-10-03T09:31:35.929Z,19.00
2017-10-03T09:34:03.043Z,20.43
2017-10-03T09:36:29.889Z,17.63
2017-10-03T09:38:56.705Z,19.90
2017-10-03T09:41:23.538Z,14.43
2017-10-03T09:43:50.404Z,16.43
2017-10-03T09:46:17.321Z,12.63
2017-10-03T09:48:44.411Z,18.83
2017-10-03T09:51:11.568Z,12.83
2017-10-03T09:53:38.383Z,14.10
2017-10-03T09:56:05.191Z,16.20
2017-10-03T09:58:32.035Z,13.30
2017-10-03T10:00:59.138Z,12.87
2017-10-03T10:03:26.293Z,16.07
2017-10-03T10:05:53.111Z,10.63
2017-10-03T10:08:19.919Z,16.20
2017-10-03T10:10:46.795Z,15.47
2017-10-03T10:13:13.640Z,27.37
2017-10-03T10:15:40.821Z,14.13
2017-10-03T10:18:07.672Z,14.97
2017-10-03T10:20:34.704Z,13.80
2017-10-03T10:23:01.577Z,7.63
2017-10-03T10:25:28.695Z,12.83
2017-10-03T10:27:55.847Z,18.40
2017-10-03T10:30:22.691Z,13.17
2017-10-03T10:32:49.524Z,15.00
2017-10-03T10:35:16.688Z,13.40
2017-10-03T10:37:43.840Z,15.37
2017-10-03T10:40:10.685Z,13.10
2017-10-03T10:42:37.833Z,13.53
2017-10-03T10:45:04.977Z,14.67
2017-10-03T10:47:31.807Z,7.87
2017-10-03T10:49:58.980Z,16.47
2017-10-03T10:52:25.840Z,17.27
2017-10-03T10:54:52.712Z,19.50
2017-10-03T10:57:19.812Z,17.70
2017-10-03T10:59:46.680Z,14.70
2017-10-03T11:02:13.806Z,12.53
2017-10-03T11:04:40.641Z,12.33
2017-10-03T11:07:07.489Z,9.40
2017-10-03T11:09:34.643Z,10.80
2017-10-03T11:12:01.787Z,13.17
2017-10-03T11:14:28.940Z,12.30
2017-10-03T11:16:55.758Z,9.87
2017-10-03T11:19:22.581Z,8.77
2017-10-03T11:21:49.394Z,9.97
2017-10-03T11:24:22.356Z,5.80
2017-10-03T11:26:49.499Z,6.20
2017-10-03T11:29:16.336Z,4.00
2017-10-03T11:31:43.216Z,4.53
2017-10-03T11:34:10.038Z,8.83
2017-10-03T11:36:36.867Z,6.17
2017-10-03T11:39:03.724Z,7.07
2017-10-03T11:41:30.871Z,11.30
2017-10-03T11:43:58.025Z,5.60
2017-10-03T11:46:24.860Z,7.50
2017-10-03T11:48:52.017Z,9.40
2017-10-03T11:51:18.884Z,5.03
2017-10-03T11:53:45.777Z,5.87
2017-10-03T11:56:12.621Z,6.17
2017-10-03T11:58:39.646Z,7.07
2017-10-03T12:01:06.496Z,7.13
2017-10-03T12:03:33.336Z,10.87
2017-10-03T12:06:00.535Z,6.63
2017-10-03T12:08:27.365Z,9.20
2017-10-03T12:10:54.524Z,8.23
2017-10-03T12:13:21.670Z,14.10
2017-10-03T12:15:48.488Z,6.60
2017-10-03T12:18:15.361Z,11.47
2017-10-03T12:20:42.217Z,7.63
2017-10-03T12:23:09.026Z,8.17
2017-10-03T12:25:36.201Z,9.83
2017-10-03T12:28:03.238Z,7.10
2017-10-03T12:30:30.391Z,8.90
2017-10-03T12:32:57.228Z,10.80
2017-10-03T12:35:24.096Z,12.37
2017-10-03T12:37:51.330Z,5.30
2017-10-03T12:40:18.488Z,7.53
2017-10-03T12:42:45.384Z,6.20
2017-10-03T12:45:12.183Z,4.60
2017-10-03T12:47:44.577Z,9.63
2017-10-03T12:50:14.802Z,3.63
2017-10-03T12:52:45.225Z,7.87
2017-10-03T12:55:14.719Z,6.00
2017-10-03T12:57:42.406Z,10.30
2017-10-03T13:00:09.894Z,15.20
2017-10-03T13:02:38.398Z,6.17
2017-10-03T13:05:06.022Z,10.80
2017-10-03T13:07:33.561Z,8.67
2017-10-03T13:10:01.856Z,12.83
2017-10-03T13:12:28.887Z,6.20
2017-10-03T13:14:56.005Z,9.10
2017-10-03T13:17:22.832Z,7.17
2017-10-03T13:19:49.991Z,9.67
2017-10-03T13:22:16.829Z,8.23
2017-10-03T13:24:43.669Z,6.93
2017-10-03T13:27:10.524Z,11.43
2017-10-03T13:29:37.674Z,8.97
2017-10-03T13:32:04.525Z,11.37
2017-10-03T13:34:31.343Z,7.50
2017-10-03T13:36:58.201Z,9.50
2017-10-03T13:39:25.363Z,6.93
2017-10-03T13:41:52.164Z,16.03
2017-10-03T13:44:19.025Z,9.10
2017-10-03T13:46:45.844Z,7.27
2017-10-03T13:49:12.666Z,7.20
2017-10-03T13:51:39.747Z,6.20
2017-10-03T13:54:06.588Z,8.10
2017-10-03T13:56:33.415Z,3.43
2017-10-03T13:59:00.254Z,7.00
2017-10-03T14:01:27.458Z,6.73
2017-10-03T14:03:55.233Z,17.57
2017-10-03T14:06:22.367Z,5.43
2017-10-03T14:08:49.180Z,3.20
2017-10-03T14:11:16.016Z,9.97
2017-10-03T14:13:42.860Z,4.80
2017-10-03T14:16:09.728Z,7.17
2017-10-03T14:18:36.751Z,5.17
2017-10-03T14:21:03.592Z,11.63
2017-10-03T14:23:30.668Z,17.40
2017-10-03T14:25:57.523Z,5.97
2017-10-03T14:28:24.382Z,8.50
2017-10-03T14:30:51.198Z,7.87
2017-10-03T14:33:18.060Z,7.23
2017-10-03T14:35:44.871Z,11.43
2017-10-03T14:38:11.712Z,3.67
2017-10-03T14:40:38.779Z,7.20
2017-10-03T14:43:05.591Z,10.07
2017-10-03T14:45:32.693Z,6.60
2017-10-03T14:47:59.759Z,5.80
2017-10-03T14:50:26.616Z,9.73
2017-10-03T14:52:53.445Z,7.30
2017-10-03T14:55:20.276Z,6.90
2017-10-03T14:57:47.148Z,11.20
2017-10-03T15:00:14.004Z,8.10
2017-10-03T15:02:41.087Z,8.90
2017-10-03T15:05:07.932Z,8.30
2017-10-03T15:07:34.739Z,17.37
2017-10-03T15:10:01.568Z,10.77
2017-10-03T15:12:28.371Z,15.63
2017-10-03T15:14:55.200Z,14.10
2017-10-03T15:17:22.064Z,8.93
2017-10-03T15:19:49.195Z,6.60
2017-10-03T15:22:16.006Z,8.93
2017-10-03T15:24:42.827Z,6.73
2017-10-03T15:27:09.667Z,12.40
2017-10-03T15:29:36.525Z,9.07
2017-10-03T15:32:03.364Z,14.93
2017-10-03T15:34:30.200Z,8.07
2017-10-03T15:36:57.046Z,9.13
2017-10-03T15:39:23.891Z,17.07
2017-10-03T15:41:50.735Z,8.87
2017-10-03T15:44:17.541Z,13.80
2017-10-03T15:46:44.396Z,13.27
2017-10-03T15:49:11.441Z,22.93
2017-10-03T15:51:38.280Z,39.40
2017-10-03T15:54:05.082Z,14.63
2017-10-03T15:56:31.883Z,17.93
2017-10-03T15:58:58.685Z,23.03
2017-10-03T16:01:25.827Z,12.97
2017-10-03T16:03:52.979Z,9.43
2017-10-03T16:06:19.809Z,13.80
2017-10-03T16:08:46.867Z,11.37
2017-10-03T16:11:13.675Z,17.37
2017-10-03T16:13:40.482Z,22.10
2017-10-03T16:16:07.266Z,12.97
2017-10-03T16:18:34.091Z,16.20
2017-10-03T16:21:01.182Z,13.77
2017-10-03T16:23:27.963Z,9.40
2017-10-03T16:25:54.771Z,11.80
2017-10-03T16:28:21.577Z,15.03
2017-10-03T16:30:48.369Z,17.37
2017-10-03T16:33:15.188Z,9.77
2017-10-03T16:35:41.985Z,17.87
2017-10-03T16:38:08.765Z,17.40
2017-10-03T16:40:35.825Z,22.27
2017-10-03T16:43:02.982Z,15.93
2017-10-03T16:45:29.770Z,14.33
2017-10-03T16:47:56.615Z,17.13
2017-10-03T16:50:23.715Z,16.27
2017-10-03T16:52:50.533Z,16.43
2017-10-03T16:55:17.297Z,10.60
2017-10-03T16:57:44.146Z,16.00
2017-10-03T17:00:10.914Z,16.13
2017-10-03T17:02:37.747Z,8.53
2017-10-03T17:05:04.545Z,16.93
2017-10-03T17:07:31.610Z,8.83
2017-10-03T17:09:58.401Z,27.73
2017-10-03T17:12:25.242Z,14.00
2017-10-03T17:14:52.056Z,14.30
2017-10-03T17:17:18.834Z,26.27
2017-10-03T17:19:45.637Z,9.73
2017-10-03T17:22:12.455Z,14.17
2017-10-03T17:24:39.295Z,15.23
2017-10-03T17:27:06.078Z,11.20
2017-10-03T17:29:32.901Z,16.43
2017-10-03T17:31:59.775Z,32.57
2017-10-03T17:34:26.558Z,20.33
2017-10-03T17:36:53.403Z,11.10
2017-10-03T17:39:20.214Z,16.70
2017-10-03T17:41:47.047Z,17.10
2017-10-03T17:44:13.830Z,13.53
2017-10-03T17:46:40.643Z,16.03
2017-10-03T17:49:07.455Z,9.90
2017-10-03T17:51:34.292Z,20.00
2017-10-03T17:54:01.071Z,23.30
2017-10-03T17:56:28.166Z,13.60
2017-10-03T17:58:54.984Z,20.47
2017-10-03T18:01:21.797Z,18.30
2017-10-03T18:03:48.582Z,15.03
2017-10-03T18:06:15.642Z,23.07
2017-10-03T18:08:42.479Z,15.13
2017-10-03T18:11:09.534Z,16.73
2017-10-03T18:13:36.387Z,15.33
2017-10-03T18:16:03.200Z,17.83
2017-10-03T18:18:30.010Z,14.47
2017-10-03T18:20:57.110Z,15.93
2017-10-03T18:23:24.149Z,16.20
2017-10-03T18:25:50.958Z,17.87
2017-10-03T18:28:17.746Z,11.10
2017-10-03T18:30:44.562Z,18.00
2017-10-03T18:33:11.386Z,10.40
2017-10-03T18:35:38.190Z,17.77
2017-10-03T18:38:05.024Z,13.53
2017-10-03T18:40:32.167Z,18.17
2017-10-03T18:42:59.214Z,9.63
2017-10-03T18:45:26.269Z,18.53
2017-10-03T18:47:53.091Z,11.43
2017-10-03T18:50:20.255Z,21.10
2017-10-03T18:52:47.038Z,19.90
2017-10-03T18:55:13.858Z,16.47
2017-10-03T18:57:40.642Z,19.00
2017-10-03T19:00:07.728Z,15.30
2017-10-03T19:02:34.884Z,19.13
2017-10-03T19:05:01.924Z,19.17
2017-10-03T19:07:28.714Z,20.33
2017-10-03T19:09:55.556Z,17.60
2017-10-03T19:12:22.661Z,12.37
2017-10-03T19:14:49.495Z,17.83
2017-10-03T19:17:16.303Z,15.97
2017-10-03T19:19:43.114Z,23.93
2017-10-03T19:22:09.943Z,12.37
2017-10-03T19:24:37.085Z,16.23
2017-10-03T19:27:03.891Z,12.53
2017-10-03T19:29:30.734Z,19.73
2017-10-03T19:31:57.766Z,20.90
2017-10-03T19:34:24.574Z,16.37
2017-10-03T19:36:51.405Z,28.83
2017-10-03T19:39:18.224Z,23.97
2017-10-03T19:41:45.035Z,22.97
2017-10-03T19:44:11.845Z,14.40
2017-10-03T19:46:38.667Z,20.63
2017-10-03T19:49:05.504Z,17.53
2017-10-03T19:51:32.557Z,29.63
2017-10-03T19:53:59.368Z,19.07
2017-10-03T19:56:26.154Z,14.67
2017-10-03T19:58:53.007Z,13.03
2017-10-03T20:01:19.811Z,15.70
2017-10-03T20:03:46.880Z,18.47
2017-10-03T20:06:13.687Z,16.07
2017-10-03T20:08:40.771Z,14.90
2017-10-03T20:11:07.605Z,14.33
2017-10-03T20:13:34.466Z,17.03
2017-10-03T20:16:01.318Z,17.27
2017-10-03T20:18:28.199Z,22.37
2017-10-03T20:20:55.007Z,14.70
2017-10-03T20:23:21.810Z,21.23
2017-10-03T20:25:48.874Z,17.63
2017-10-03T20:28:15.918Z,14.97
2017-10-03T20:30:42.746Z,24.00
2017-10-03T20:33:09.551Z,17.53
2017-10-03T20:35:36.359Z,16.77
2017-10-03T20:38:03.199Z,20.73
2017-10-03T20:40:30.014Z,19.97
2017-10-03T20:42:56.819Z,15.30
2017-10-03T20:45:23.632Z,18.63
2017-10-03T20:47:50.771Z,13.33
2017-10-03T20:50:17.823Z,21.07
2017-10-03T20:52:44.671Z,20.50
2017-10-03T20:55:11.507Z,18.80
2017-10-03T20:57:38.322Z,22.10
2017-10-03T21:00:05.146Z,19.47
2017-10-03T21:02:31.962Z,21.90
2017-10-03T21:04:59.083Z,17.83
2017-10-03T21:07:25.877Z,31.73
2017-10-03T21:09:52.658Z,15.30
2017-10-03T21:12:19.499Z,22.10
2017-10-03T21:14:46.663Z,21.97
2017-10-03T21:17:13.483Z,22.60
2017-10-03T21:19:40.655Z,25.23
2017-10-03T21:22:07.437Z,30.87
2017-10-03T21:24:34.483Z,21.47
2017-10-03T21:27:01.514Z,20.13
2017-10-03T21:29:28.300Z,22.63
2017-10-03T21:31:55.090Z,19.57
2017-10-03T21:34:21.939Z,23.57
2017-10-03T21:36:48.744Z,16.47
2017-10-03T21:39:15.560Z,21.80
2017-10-03T21:41:48.274Z,16.03
2017-10-03T21:44:15.335Z,16.50
2017-10-03T21:46:42.148Z,22.47
2017-10-03T21:49:09.226Z,27.80
2017-10-03T21:51:36.269Z,15.57
2017-10-03T21:54:03.123Z,13.60
2017-10-03T21:56:30.158Z,14.90
2017-10-03T21:58:57.210Z,27.83
2017-10-03T22:01:24.363Z,18.20
2017-10-03T22:03:51.139Z,22.93
2017-10-03T22:06:17.983Z,14.07
2017-10-03T22:08:44.768Z,25.30
2017-10-03T22:11:11.941Z,17.07
2017-10-03T22:13:38.747Z,16.23
2017-10-03T22:16:05.557Z,15.70
2017-10-03T22:18:32.338Z,17.77
2017-10-03T22:20:59.125Z,24.40
2017-10-03T22:23:25.963Z,15.77
2017-10-03T22:25:52.749Z,13.90
2017-10-03T22:28:19.854Z,16.63
2017-10-03T22:30:46.881Z,17.10
2017-10-03T22:33:13.702Z,16.00
2017-10-03T22:35:40.485Z,12.33
2017-10-03T22:38:07.519Z,12.90
2017-10-03T22:40:34.326Z,14.70
2017-10-03T22:43:01.412Z,20.10
2017-10-03T22:45:28.562Z,12.23
2017-10-03T22:47:55.345Z,16.17
2017-10-03T22:50:22.156Z,26.03
2017-10-03T22:52:48.970Z,16.07
2017-10-03T22:55:16.039Z,19.47
2017-10-03T22:57:43.082Z,14.23
2017-10-03T23:00:09.861Z,22.77
2017-10-03T23:02:36.971Z,21.03
2017-10-03T23:05:03.761Z,19.10
2017-10-03T23:07:30.583Z,19.10
2017-10-03T23:09:57.426Z,27.23
2017-10-03T23:12:24.448Z,16.50
2017-10-03T23:14:51.497Z,14.37
2017-10-03T23:17:18.648Z,25.80
2017-10-03T23:19:45.503Z,14.00
2017-10-03T23:22:12.537Z,9.87
2017-10-03T23:24:39.392Z,18.33
2017-10-03T23:27:06.194Z,22.50
2017-10-03T23:29:33.278Z,16.40
2017-10-03T23:32:00.107Z,27.30
2017-10-03T23:34:26.917Z,18.20
2017-10-03T23:36:54.002Z,24.07
2017-10-03T23:39:20.806Z,28.40
2017-10-03T23:41:47.896Z,18.77
2017-10-03T23:44:14.681Z,19.50
2017-10-03T23:46:41.786Z,16.03
2017-10-03T23:49:08.834Z,20.43
2017-10-03T23:51:35.887Z,15.83
2017-10-03T23:54:02.723Z,25.53
2017-10-03T23:56:29.505Z,21.50
2017-10-03T23:58:56.314Z,18.63
